Time;durP1;ratioP1;P1;durP2;ratioP2;P2;SDS_P1;SDS_P2;PMS_P1;PMS_P2;Temp;Humidity;BMP_temperature;BMP_pressure;BME280_temperature;BME280_humidity;BME280_pressure;Samples;Min_cycle;Max_cycle;Signal;HPM_P1;HPM_P2
2022/06/11 00:01:25;;;;;;;5.70;3.70;;;19.30;76.90;;;;;;5114482;28;20043;-30
2022/06/11 00:03:54;;;;;;;5.45;3.88;;;19.30;76.90;;;;;;5114081;28;20031;-28
2022/06/11 00:06:21;;;;;;;6.60;3.88;;;19.20;76.80;;;;;;5112673;28;20385;-29
2022/06/11 00:08:47;;;;;;;5.25;3.65;;;19.20;76.80;;;;;;5113862;28;20522;-28
2022/06/11 00:11:14;;;;;;;4.82;3.35;;;19.20;76.80;;;;;;5114133;28;20027;-29
2022/06/11 00:13:42;;;;;;;6.45;3.33;;;19.10;77.40;;;;;;5113966;28;20035;-29
2022/06/11 00:16:10;;;;;;;4.22;2.80;;;19.10;76.80;;;;;;5114130;28;20470;-29
2022/06/11 00:18:40;;;;;;;3.47;2.90;;;19.10;76.80;;;;;;5113700;28;20019;-28
2022/06/11 00:21:06;;;;;;;4.05;3.13;;;19.00;76.70;;;;;;5113695;28;20023;-29
2022/06/11 00:23:32;;;;;;;4.15;3.05;;;19.00;76.70;;;;;;5114218;28;20372;-29
2022/06/11 00:25:59;;;;;;;5.50;2.65;;;18.90;76.60;;;;;;5113914;28;20080;-28
2022/06/11 00:28:26;;;;;;;7.18;2.92;;;19.00;76.70;;;;;;5112767;28;20320;-28
2022/06/11 00:30:52;;;;;;;5.63;3.00;;;18.90;76.60;;;;;;5113532;28;20032;-29
2022/06/11 00:33:18;;;;;;;4.05;2.75;;;18.90;76.60;;;;;;5113615;28;20051;-29
2022/06/11 00:35:43;;;;;;;3.38;2.67;;;18.90;76.60;;;;;;5113538;28;20027;-29
2022/06/11 00:38:10;;;;;;;4.60;2.75;;;18.80;76.70;;;;;;5113480;28;20497;-28
2022/06/11 00:40:38;;;;;;;4.07;2.60;;;18.80;76.70;;;;;;5113569;28;20028;-31
2022/06/11 00:43:06;;;;;;;2.60;2.40;;;18.80;76.80;;;;;;5113335;28;20402;-28
2022/06/11 00:45:37;;;;;;;5.13;2.65;;;18.80;76.80;;;;;;5113132;28;20028;-28
2022/06/11 00:48:17;;;;;;;5.80;2.80;;;18.70;76.90;;;;;;5113312;28;20474;-28
2022/06/11 00:50:47;;;;;;;3.92;2.50;;;18.70;76.90;;;;;;5113339;28;20024;-28
2022/06/11 00:53:30;;;;;;;3.50;2.53;;;18.60;76.90;;;;;;5113080;28;20106;-28
2022/06/11 00:55:56;;;;;;;3.45;3.03;;;18.60;77.00;;;;;;5111779;28;20098;-29
2022/06/11 00:58:25;;;;;;;2.85;2.58;;;18.50;77.00;;;;;;5112933;28;20039;-29
2022/06/11 01:00:54;;;;;;;5.20;2.90;;;18.50;77.80;;;;;;5113028;28;20051;-29
2022/06/11 01:03:25;;;;;;;6.28;3.20;;;18.50;77.30;;;;;;5113029;28;20433;-28
2022/06/11 01:06:06;;;;;;;4.65;2.90;;;18.50;77.40;;;;;;5113306;28;20020;-28
2022/06/11 01:08:38;;;;;;;4.20;3.08;;;18.40;77.50;;;;;;5113017;28;20100;-28
2022/06/11 01:11:32;;;;;;;5.55;3.17;;;18.40;77.50;;;;;;5112988;28;20416;-28
2022/06/11 01:14:16;;;;;;;4.13;3.00;;;18.40;77.70;;;;;;5113145;28;20326;-31
2022/06/11 01:16:49;;;;;;;6.50;3.35;;;18.30;77.70;;;;;;5113036;28;20043;-31
2022/06/11 01:19:33;;;;;;;3.75;2.95;;;18.30;77.70;;;;;;5112997;28;20036;-29
2022/06/11 01:22:13;;;;;;;4.82;3.45;;;18.20;77.80;;;;;;5112875;28;20023;-28
2022/06/11 01:24:55;;;;;;;5.07;3.30;;;18.20;77.90;;;;;;5111325;28;20028;-28
2022/06/11 01:27:58;;;;;;;4.72;3.03;;;18.20;77.90;;;;;;5112910;28;20359;-29
2022/06/11 01:30:45;;;;;;;5.10;2.97;;;18.10;78.00;;;;;;5112714;28;20089;-29
2022/06/11 01:33:21;;;;;;;4.85;3.47;;;18.10;78.00;;;;;;5111865;28;20081;-28
2022/06/11 01:35:50;;;;;;;4.03;3.30;;;18.00;78.10;;;;;;5112471;28;20097;-28
2022/06/11 01:38:19;;;;;;;5.30;3.28;;;18.00;78.20;;;;;;5112729;28;20028;-31
2022/06/11 01:41:06;;;;;;;3.45;2.97;;;18.00;78.30;;;;;;5112631;28;20047;-30
2022/06/11 01:43:40;;;;;;;4.50;3.10;;;18.00;78.50;;;;;;5112594;28;20475;-28
2022/06/11 01:46:17;;;;;;;5.97;3.00;;;17.90;78.40;;;;;;5112563;28;20389;-33
2022/06/11 01:48:54;;;;;;;5.47;3.40;;;17.90;78.60;;;;;;5111275;28;20102;-29
2022/06/11 01:51:51;;;;;;;5.70;3.40;;;17.90;78.60;;;;;;5112803;28;20046;-29
2022/06/11 01:54:23;;;;;;;4.85;3.03;;;17.90;78.70;;;;;;5108243;28;20085;-28
2022/06/11 01:57:10;;;;;;;4.43;2.95;;;17.80;78.70;;;;;;5112879;28;20475;-28
2022/06/11 01:59:54;;;;;;;4.88;3.20;;;17.80;78.90;;;;;;5112559;28;20058;-30
2022/06/11 02:02:38;;;;;;;3.15;2.83;;;17.70;78.80;;;;;;5112563;28;20125;-29
2022/06/11 02:05:17;;;;;;;4.70;3.22;;;17.70;78.90;;;;;;5112931;28;20039;-28
2022/06/11 02:07:56;;;;;;;4.07;3.22;;;17.70;79.00;;;;;;5112722;28;20102;-28
2022/06/11 02:10:34;;;;;;;6.57;3.10;;;17.70;79.10;;;;;;5111513;28;20136;-28
2022/06/11 02:13:17;;;;;;;6.43;3.20;;;17.70;79.20;;;;;;5112737;28;20032;-28
2022/06/11 02:16:06;;;;;;;5.30;3.47;;;17.60;79.20;;;;;;5112513;28;20020;-28
2022/06/11 02:18:34;;;;;;;5.25;3.10;;;17.60;79.30;;;;;;5112471;28;20257;-29
2022/06/11 02:21:06;;;;;;;4.28;3.63;;;17.60;79.40;;;;;;5112293;28;20412;-28
2022/06/11 02:23:47;;;;;;;3.70;3.25;;;17.50;79.40;;;;;;5112260;28;20114;-28
2022/06/11 02:26:20;;;;;;;5.32;3.60;;;17.50;79.50;;;;;;5112438;28;20137;-30
2022/06/11 02:28:48;;;;;;;4.32;3.25;;;17.50;79.50;;;;;;5112212;28;20115;-28
2022/06/11 02:31:23;;;;;;;5.32;3.60;;;17.50;79.60;;;;;;5112267;28;20016;-28
2022/06/11 02:33:49;;;;;;;4.03;3.42;;;17.50;79.70;;;;;;5112394;28;20359;-28
2022/06/11 02:36:18;;;;;;;3.55;2.92;;;17.50;79.80;;;;;;5112264;28;20367;-28
2022/06/11 02:38:44;;;;;;;3.75;3.00;;;17.40;79.70;;;;;;5112077;28;20019;-28
2022/06/11 02:41:14;;;;;;;5.18;3.38;;;17.40;79.70;;;;;;5111991;28;20022;-29
2022/06/11 02:43:40;;;;;;;4.95;3.17;;;17.40;79.70;;;;;;5112069;28;20027;-29
2022/06/11 02:47:06;;;;;;;4.05;3.28;;;17.40;79.70;;;;;;5115671;28;20028;-28
2022/06/11 02:49:01;;;;;;;3.55;3.00;;;17.40;79.70;;;;;;5114829;28;20046;-28
2022/06/11 02:51:29;;;;;;;5.90;3.17;;;17.40;79.70;;;;;;5115675;28;20483;-28
2022/06/11 02:53:54;;;;;;;3.67;3.20;;;17.40;79.70;;;;;;5115608;28;20035;-28
2022/06/11 02:56:20;;;;;;;3.97;3.30;;;17.40;79.70;;;;;;5115537;28;20027;-29
2022/06/11 02:58:47;;;;;;;4.82;3.30;;;17.30;79.70;;;;;;5114998;28;20107;-28
2022/06/11 03:01:12;;;;;;;4.70;3.38;;;17.30;80.40;;;;;;5115218;28;20099;-30
2022/06/11 03:03:38;;;;;;;3.90;3.50;;;17.30;79.80;;;;;;5115100;27;20108;-28
2022/06/11 03:06:05;;;;;;;4.05;3.60;;;17.30;79.90;;;;;;5115472;28;20382;-29
2022/06/11 03:08:32;;;;;;;4.32;3.45;;;17.20;79.90;;;;;;5115713;28;20130;-29
2022/06/11 03:10:58;;;;;;;4.25;3.60;;;17.20;80.00;;;;;;5115415;28;20077;-29
2022/06/11 03:13:25;;;;;;;3.88;3.10;;;17.20;80.10;;;;;;5114912;28;20451;-28
2022/06/11 03:15:51;;;;;;;5.80;3.67;;;17.20;80.20;;;;;;5114737;28;20031;-28
2022/06/11 03:18:18;;;;;;;5.78;3.75;;;17.20;80.30;;;;;;5114980;27;20425;-27
2022/06/11 03:20:44;;;;;;;6.53;3.95;;;17.10;80.30;;;;;;5114916;28;20016;-28
2022/06/11 03:23:10;;;;;;;4.63;4.05;;;17.10;80.40;;;;;;5114929;28;20028;-40
2022/06/11 03:25:36;;;;;;;5.28;3.70;;;17.10;80.50;;;;;;5115520;28;20026;-29
2022/06/11 03:28:11;;;;;;;4.88;3.42;;;17.10;81.20;;;;;;5115303;28;20020;-28
2022/06/11 03:30:37;;;;;;;4.90;3.70;;;17.10;80.60;;;;;;5113476;27;20123;-28
2022/06/11 03:33:05;;;;;;;5.50;3.42;;;17.10;80.60;;;;;;5114642;28;20024;-33
2022/06/11 03:35:31;;;;;;;4.93;3.35;;;17.10;80.70;;;;;;5114902;28;20371;-28
2022/06/11 03:37:56;;;;;;;5.72;3.72;;;17.10;80.70;;;;;;5114687;28;20024;-27
2022/06/11 03:40:23;;;;;;;5.78;3.60;;;17.00;80.60;;;;;;5114734;28;20556;-31
2022/06/11 03:42:49;;;;;;;5.88;3.45;;;17.00;80.70;;;;;;5114899;28;20053;-31
2022/06/11 03:45:14;;;;;;;5.25;3.20;;;17.00;80.70;;;;;;5114732;28;20027;-29
2022/06/11 03:47:40;;;;;;;6.20;3.30;;;17.00;80.70;;;;;;5114709;28;20106;-28
2022/06/11 03:50:10;;;;;;;3.80;3.30;;;17.00;80.70;;;;;;5114635;28;20039;-29
2022/06/11 03:52:37;;;;;;;4.30;3.20;;;17.00;80.70;;;;;;5114256;28;20030;-29
2022/06/11 03:55:03;;;;;;;3.17;2.88;;;17.00;80.60;;;;;;5113842;28;20023;-28
2022/06/11 03:57:28;;;;;;;4.78;2.95;;;17.00;80.60;;;;;;5113401;28;20020;-27
2022/06/11 03:59:54;;;;;;;5.13;3.42;;;17.00;80.60;;;;;;5113926;28;20136;-29
2022/06/11 04:02:19;;;;;;;5.63;3.30;;;17.00;80.60;;;;;;5114279;27;20019;-28
2022/06/11 04:04:45;;;;;;;5.68;2.97;;;17.00;80.60;;;;;;5114172;28;20020;-29
2022/06/11 04:07:12;;;;;;;4.35;3.38;;;17.00;80.60;;;;;;5114172;28;20030;-29
2022/06/11 04:09:42;;;;;;;5.05;3.80;;;16.90;80.60;;;;;;5114118;28;20348;-28
2022/06/11 04:12:11;;;;;;;5.45;3.22;;;16.90;80.80;;;;;;5114111;28;20020;-28
2022/06/11 04:14:38;;;;;;;5.72;3.03;;;16.90;80.80;;;;;;5113970;28;20016;-31
2022/06/11 04:17:08;;;;;;;5.10;3.00;;;16.80;80.70;;;;;;5113702;28;20081;-30
2022/06/11 04:19:37;;;;;;;3.78;2.90;;;16.90;80.70;;;;;;5113621;28;20035;-28
2022/06/11 04:22:05;;;;;;;4.07;2.70;;;16.90;80.60;;;;;;5114137;28;20359;-28
2022/06/11 04:24:32;;;;;;;3.95;2.70;;;16.90;80.50;;;;;;5113796;28;20024;-28
2022/06/11 04:27:00;;;;;;;4.03;2.70;;;16.90;80.40;;;;;;5113494;27;20026;-30
2022/06/11 04:29:30;;;;;;;4.90;2.80;;;16.90;80.30;;;;;;5113414;27;20031;-32
2022/06/11 04:31:58;;;;;;;4.30;2.67;;;16.90;80.20;;;;;;5113708;28;20447;-29
2022/06/11 04:34:27;;;;;;;4.53;2.60;;;16.90;80.00;;;;;;5113609;28;20011;-27
2022/06/11 04:36:53;;;;;;;7.05;2.65;;;16.90;80.50;;;;;;5113481;28;20042;-28
2022/06/11 04:39:22;;;;;;;5.40;2.58;;;16.90;79.80;;;;;;5113263;28;20027;-28
2022/06/11 04:41:48;;;;;;;4.38;2.25;;;16.90;79.70;;;;;;5113264;28;20027;-29
2022/06/11 04:44:14;;;;;;;6.55;2.80;;;16.90;79.60;;;;;;5113314;28;20047;-28
2022/06/11 04:46:41;;;;;;;5.28;1.95;;;16.90;79.50;;;;;;5113282;28;20034;-28
2022/06/11 04:49:07;;;;;;;6.90;2.30;;;16.90;79.40;;;;;;5113441;28;20183;-28
2022/06/11 04:51:32;;;;;;;6.15;2.35;;;16.90;79.30;;;;;;5113289;28;20080;-28
2022/06/11 04:53:58;;;;;;;6.72;2.15;;;16.90;79.20;;;;;;5113274;28;20035;-28
2022/06/11 04:56:27;;;;;;;5.75;2.30;;;16.90;79.10;;;;;;5113671;28;20031;-28
2022/06/11 04:58:53;;;;;;;5.07;2.15;;;16.90;79.00;;;;;;5113054;28;20051;-28
2022/06/11 05:01:19;;;;;;;6.22;2.28;;;16.90;78.90;;;;;;5113537;28;20020;-28
2022/06/11 05:03:45;;;;;;;8.25;2.20;;;16.90;78.90;;;;;;5113677;28;20023;-28
2022/06/11 05:06:14;;;;;;;5.60;2.22;;;16.90;78.80;;;;;;5113157;28;20023;-28
2022/06/11 05:08:40;;;;;;;7.25;2.03;;;17.00;78.70;;;;;;5112233;28;20498;-31
2022/06/11 05:11:05;;;;;;;6.97;2.13;;;17.00;78.50;;;;;;5113206;28;20043;-32
2022/06/11 05:13:31;;;;;;;6.15;1.98;;;17.00;78.40;;;;;;5113268;28;20034;-31
2022/06/11 05:15:58;;;;;;;4.82;1.90;;;17.10;78.30;;;;;;5112791;28;20034;-27
2022/06/11 05:18:25;;;;;;;7.28;2.55;;;17.10;78.20;;;;;;5113106;28;20023;-28
2022/06/11 05:20:51;;;;;;;4.97;1.98;;;17.10;77.90;;;;;;5112653;28;20115;-28
2022/06/11 05:23:18;;;;;;;5.30;2.10;;;17.10;77.80;;;;;;5112687;28;20024;-28
2022/06/11 05:25:44;;;;;;;7.90;2.40;;;17.00;77.60;;;;;;5112717;28;20028;-28
2022/06/11 05:28:16;;;;;;;7.20;1.83;;;17.10;77.50;;;;;;5112643;28;20023;-29
2022/06/11 05:30:41;;;;;;;6.05;2.20;;;17.10;77.30;;;;;;5112742;28;20028;-27
2022/06/11 05:33:07;;;;;;;6.35;1.77;;;17.10;77.30;;;;;;5112407;28;20413;-27
2022/06/11 05:35:34;;;;;;;7.50;2.60;;;17.10;77.20;;;;;;5112513;28;20032;-27
2022/06/11 05:38:03;;;;;;;5.10;2.20;;;17.20;77.10;;;;;;5111225;28;20016;-28
2022/06/11 05:40:31;;;;;;;7.32;2.25;;;17.20;77.00;;;;;;5112323;28;20444;-29
2022/06/11 05:42:57;;;;;;;7.60;2.20;;;17.20;76.90;;;;;;5112679;28;20471;-27
2022/06/11 05:45:29;;;;;;;7.93;2.22;;;17.20;76.80;;;;;;5112745;28;20076;-28
2022/06/11 05:47:56;;;;;;;7.07;3.17;;;17.30;76.80;;;;;;5112251;28;20073;-28
2022/06/11 05:50:28;;;;;;;8.98;2.58;;;17.30;76.70;;;;;;5112594;28;20491;-28
2022/06/11 05:52:56;;;;;;;8.93;2.22;;;17.30;76.60;;;;;;5112507;28;20023;-28
2022/06/11 05:55:26;;;;;;;8.27;2.28;;;17.30;76.40;;;;;;5112731;28;20055;-28
2022/06/11 05:57:53;;;;;;;9.55;2.70;;;17.30;76.30;;;;;;5112127;28;20031;-29
2022/06/11 06:00:21;;;;;;;7.63;2.30;;;17.40;76.30;;;;;;5112677;28;20034;-36
2022/06/11 06:02:47;;;;;;;10.45;2.90;;;17.40;76.20;;;;;;5112507;28;20062;-45
2022/06/11 06:05:17;;;;;;;11.25;2.50;;;17.30;76.00;;;;;;5112539;28;20047;-44
2022/06/11 06:07:42;;;;;;;12.52;3.00;;;17.40;75.90;;;;;;5111132;28;20035;-45
2022/06/11 06:10:08;;;;;;;12.55;2.70;;;17.40;75.90;;;;;;5112338;28;20038;-44
2022/06/11 06:12:36;;;;;;;7.22;2.28;;;17.40;75.80;;;;;;5112392;28;20031;-44
2022/06/11 06:15:09;;;;;;;6.53;2.58;;;17.40;75.80;;;;;;5112401;28;20066;-44
2022/06/11 06:17:36;;;;;;;8.85;2.55;;;17.40;75.70;;;;;;5112511;28;20435;-44
2022/06/11 06:20:02;;;;;;;10.07;2.60;;;17.50;75.60;;;;;;5114935;28;20027;-47
2022/06/11 06:22:27;;;;;;;15.23;3.00;;;17.50;75.50;;;;;;5116555;27;20073;-45
2022/06/11 06:24:53;;;;;;;8.18;2.65;;;17.50;75.40;;;;;;5116030;28;20425;-45
2022/06/11 06:27:19;;;;;;;7.20;2.53;;;17.50;75.50;;;;;;5116009;28;20023;-44
2022/06/11 06:29:44;;;;;;;11.15;2.60;;;17.50;75.30;;;;;;5116146;28;20072;-44
2022/06/11 06:32:10;;;;;;;10.68;2.83;;;17.50;75.30;;;;;;5116133;28;20055;-44
2022/06/11 06:34:35;;;;;;;8.25;2.90;;;17.50;75.20;;;;;;5114449;28;20051;-44
2022/06/11 06:37:01;;;;;;;12.13;2.95;;;17.60;75.20;;;;;;5116075;28;20020;-44
2022/06/11 06:39:26;;;;;;;12.18;3.13;;;17.60;75.10;;;;;;5114336;28;20068;-43
2022/06/11 06:41:52;;;;;;;11.73;3.38;;;17.60;75.10;;;;;;5115828;28;20041;-43
2022/06/11 06:44:18;;;;;;;12.55;2.75;;;17.70;75.10;;;;;;5115910;28;20474;-42
2022/06/11 06:46:43;;;;;;;10.43;2.60;;;17.70;75.00;;;;;;5115794;28;20028;-44
2022/06/11 06:49:09;;;;;;;13.23;3.08;;;17.70;74.90;;;;;;5116555;28;20051;-44
2022/06/11 06:51:35;;;;;;;11.82;2.42;;;17.70;74.80;;;;;;5115575;28;20111;-44
2022/06/11 06:54:01;;;;;;;11.55;2.83;;;17.80;74.70;;;;;;5115998;28;20443;-43
2022/06/11 06:56:31;;;;;;;9.25;2.40;;;17.80;74.50;;;;;;5115770;28;20038;-44
2022/06/11 06:58:57;;;;;;;13.30;2.90;;;17.80;74.50;;;;;;5115382;28;20044;-44
2022/06/11 07:01:23;;;;;;;13.77;3.10;;;17.90;74.30;;;;;;5115545;28;20019;-45
2022/06/11 07:03:49;;;;;;;13.57;2.80;;;17.90;74.10;;;;;;5115693;28;20522;-42
2022/06/11 07:06:15;;;;;;;14.35;2.85;;;18.00;73.90;;;;;;5115522;28;20032;-44
2022/06/11 07:08:40;;;;;;;10.88;2.85;;;18.00;73.70;;;;;;5115432;28;20085;-44
2022/06/11 07:11:06;;;;;;;11.68;2.65;;;18.00;73.50;;;;;;5115366;28;20028;-43
2022/06/11 07:13:32;;;;;;;9.50;2.30;;;18.10;73.50;;;;;;5115403;28;20490;-44
2022/06/11 07:16:00;;;;;;;13.57;3.40;;;18.10;73.30;;;;;;5115164;28;20429;-44
2022/06/11 07:18:34;;;;;;;10.10;2.42;;;18.20;73.30;;;;;;5115463;28;20020;-44
2022/06/11 07:21:03;;;;;;;10.63;2.38;;;18.20;73.20;;;;;;5115266;28;20020;-44
2022/06/11 07:23:42;;;;;;;9.32;2.50;;;18.30;73.10;;;;;;5114544;28;20478;-45
2022/06/11 07:26:13;;;;;;;12.05;2.45;;;18.30;72.90;;;;;;5114966;28;20020;-45
2022/06/11 07:28:47;;;;;;;9.35;2.45;;;18.40;73.00;;;;;;5115279;28;20080;-41
2022/06/11 07:31:13;;;;;;;11.50;2.50;;;18.50;72.90;;;;;;5113855;28;20383;-42
2022/06/11 07:33:41;;;;;;;9.43;2.88;;;18.50;72.80;;;;;;5114959;27;20098;-46
2022/06/11 07:36:07;;;;;;;8.57;2.30;;;18.60;72.60;;;;;;5114897;28;20476;-42
2022/06/11 07:38:33;;;;;;;6.80;2.38;;;18.60;72.40;;;;;;5115031;28;20054;-44
2022/06/11 07:40:58;;;;;;;9.05;2.70;;;18.70;72.30;;;;;;5114896;28;20069;-42
2022/06/11 07:43:25;;;;;;;12.02;2.60;;;18.80;72.10;;;;;;5114822;28;20438;-44
2022/06/11 07:45:51;;;;;;;10.73;2.42;;;18.80;71.80;;;;;;5114685;28;20028;-44
2022/06/11 07:48:17;;;;;;;12.07;3.13;;;18.90;71.80;;;;;;5114672;28;20080;-44
2022/06/11 07:50:45;;;;;;;13.10;3.20;;;18.90;71.60;;;;;;5115173;28;20024;-46
2022/06/11 07:53:12;;;;;;;11.60;2.55;;;19.00;71.30;;;;;;5114773;28;20390;-43
2022/06/11 07:55:40;;;;;;;10.95;3.28;;;19.00;71.20;;;;;;5115086;28;20042;-44
2022/06/11 07:58:07;;;;;;;12.50;2.75;;;19.10;71.20;;;;;;5114874;28;20023;-44
2022/06/11 08:00:37;;;;;;;12.90;3.13;;;19.10;70.70;;;;;;5114708;28;20020;-44
2022/06/11 08:03:04;;;;;;;16.50;2.97;;;19.10;70.30;;;;;;5114649;28;20023;-44
2022/06/11 08:05:30;;;;;;;11.15;2.70;;;19.10;70.00;;;;;;5114562;28;20019;-45
2022/06/11 08:07:56;;;;;;;10.50;2.60;;;19.10;70.10;;;;;;5114483;28;20429;-44
2022/06/11 08:10:25;;;;;;;7.53;2.42;;;19.10;70.00;;;;;;5114552;28;20028;-44
2022/06/11 08:12:51;;;;;;;11.98;2.50;;;19.20;69.90;;;;;;5114350;28;20030;-45
2022/06/11 08:15:17;;;;;;;11.48;2.05;;;19.20;69.80;;;;;;5114182;28;20027;-43
2022/06/11 08:17:44;;;;;;;8.35;2.17;;;19.30;69.70;;;;;;5114264;28;20102;-44
2022/06/11 08:20:13;;;;;;;8.25;2.28;;;19.30;69.40;;;;;;5114020;27;20065;-44
2022/06/11 08:22:39;;;;;;;11.18;2.40;;;19.40;69.30;;;;;;5114627;28;20111;-44
2022/06/11 08:25:05;;;;;;;9.30;2.40;;;19.40;68.70;;;;;;5114043;28;20041;-45
2022/06/11 08:27:31;;;;;;;10.68;2.65;;;19.50;68.60;;;;;;5114244;28;20032;-44
2022/06/11 08:29:57;;;;;;;10.55;2.70;;;19.50;68.20;;;;;;5114287;28;20027;-44
2022/06/11 08:32:23;;;;;;;11.57;2.22;;;19.50;68.00;;;;;;5113173;28;20036;-45
2022/06/11 08:34:48;;;;;;;7.78;2.15;;;19.60;67.90;;;;;;5113621;28;20239;-45
2022/06/11 08:37:15;;;;;;;7.53;2.22;;;19.70;67.80;;;;;;5114032;28;20040;-45
2022/06/11 08:39:41;;;;;;;10.63;2.63;;;19.70;67.50;;;;;;5113501;28;20023;-44
2022/06/11 08:42:37;;;;;;;6.65;1.95;;;19.80;67.00;;;;;;5113550;28;20016;-45
2022/06/11 08:45:19;;;;;;;12.23;2.58;;;19.80;66.60;;;;;;5113782;28;20035;-44
2022/06/11 08:47:48;;;;;;;9.77;2.37;;;19.80;66.50;;;;;;5113372;28;20039;-43
2022/06/11 08:50:17;;;;;;;5.32;1.92;;;19.90;66.20;;;;;;5113420;28;20028;-43
2022/06/11 08:52:45;;;;;;;10.68;2.50;;;19.90;66.20;;;;;;5113216;28;20126;-43
2022/06/11 08:55:11;;;;;;;9.13;2.72;;;19.90;65.40;;;;;;5113045;28;20090;-46
2022/06/11 08:58:01;;;;;;;13.05;2.35;;;19.90;65.30;;;;;;5113870;28;20531;-44
2022/06/11 09:01:00;;;;;;;8.65;2.05;;;20.00;65.10;;;;;;5113452;28;20474;-43
2022/06/11 09:03:42;;;;;;;11.65;2.42;;;20.10;64.80;;;;;;5113157;28;20043;-44
2022/06/11 09:06:19;;;;;;;10.00;2.13;;;20.10;64.50;;;;;;5112841;28;20023;-45
2022/06/11 09:09:07;;;;;;;8.27;1.92;;;20.20;64.50;;;;;;5112935;28;20122;-45
2022/06/11 09:11:33;;;;;;;11.82;2.97;;;20.20;64.40;;;;;;5112628;28;20027;-47
2022/06/11 09:14:16;;;;;;;8.13;2.22;;;20.30;64.10;;;;;;5113196;28;20419;-46
2022/06/11 09:16:54;;;;;;;8.65;2.00;;;20.30;63.80;;;;;;5112919;28;20066;-45
2022/06/11 09:19:22;;;;;;;7.90;2.10;;;20.30;63.90;;;;;;5112864;28;20047;-45
2022/06/11 09:21:56;;;;;;;6.57;1.80;;;20.30;63.60;;;;;;5112660;28;20037;-45
2022/06/11 09:24:30;;;;;;;7.75;2.05;;;20.30;63.10;;;;;;5112646;28;20033;-45
2022/06/11 09:27:10;;;;;;;6.97;2.03;;;20.40;62.50;;;;;;5112790;28;20584;-45
2022/06/11 09:30:06;;;;;;;6.05;2.05;;;20.50;61.70;;;;;;5112758;28;20027;-44
2022/06/11 09:32:38;;;;;;;9.75;2.22;;;20.60;61.10;;;;;;5112255;28;20055;-45
2022/06/11 09:35:27;;;;;;;5.68;2.00;;;20.70;60.70;;;;;;5112907;28;20023;-45
2022/06/11 09:38:26;;;;;;;10.18;2.15;;;20.70;60.70;;;;;;5112825;28;20024;-44
2022/06/11 09:41:04;;;;;;;5.78;1.67;;;20.80;60.70;;;;;;5111434;28;20019;-44
2022/06/11 09:43:54;;;;;;;7.43;2.15;;;20.90;60.90;;;;;;5112830;28;20024;-44
2022/06/11 09:46:35;;;;;;;7.18;1.83;;;20.90;60.80;;;;;;5112520;28;20020;-43
2022/06/11 09:49:25;;;;;;;8.02;2.28;;;20.90;60.90;;;;;;5112653;28;20074;-44
2022/06/11 09:52:07;;;;;;;8.68;1.98;;;20.90;60.90;;;;;;5112905;28;20031;-44
2022/06/11 09:54:44;;;;;;;10.45;2.15;;;20.90;60.90;;;;;;5114260;28;20364;-44
2022/06/11 09:57:28;;;;;;;10.65;2.17;;;20.90;60.80;;;;;;5116947;28;20055;-44
2022/06/11 10:00:18;;;;;;;6.28;1.98;;;20.90;60.60;;;;;;5116463;28;20059;-44
2022/06/11 10:03:02;;;;;;;9.23;2.40;;;20.90;60.30;;;;;;5116834;28;20019;-44
2022/06/11 10:06:05;;;;;;;9.38;2.22;;;20.90;60.40;;;;;;5116857;28;20023;-44
2022/06/11 10:08:35;;;;;;;4.30;1.50;;;21.00;60.40;;;;;;5093113;27;20085;-43
2022/06/11 10:11:04;;;;;;;7.00;2.03;;;21.10;60.50;;;;;;5116854;27;20027;-44
2022/06/11 10:13:48;;;;;;;7.00;1.95;;;21.20;60.60;;;;;;5116454;28;20491;-43
2022/06/11 10:16:30;;;;;;;6.57;1.90;;;21.30;60.60;;;;;;5116132;28;20067;-47
2022/06/11 10:19:14;;;;;;;7.38;2.10;;;21.30;60.90;;;;;;5116401;28;20051;-42
2022/06/11 10:21:48;;;;;;;7.78;2.50;;;21.40;60.10;;;;;;5114922;28;20077;-44
2022/06/11 10:24:18;;;;;;;8.48;2.50;;;21.40;60.00;;;;;;5116096;28;20043;-44
2022/06/11 10:26:51;;;;;;;8.98;2.83;;;21.50;59.90;;;;;;5116646;28;20020;-45
2022/06/11 10:29:24;;;;;;;;;;;21.50;59.40;;;;;;5116854;28;20019;-45
2022/06/11 10:32:09;;;;;;;7.68;2.30;;;21.50;58.90;;;;;;5116357;27;19941;-45
2022/06/11 10:34:40;;;;;;;7.95;2.38;;;21.50;59.50;;;;;;5114906;28;20073;-45
2022/06/11 10:37:19;;;;;;;7.85;2.40;;;21.60;59.50;;;;;;5116163;28;20023;-45
2022/06/11 10:40:06;;;;;;;10.52;2.63;;;21.70;59.10;;;;;;5116429;28;20507;-45
2022/06/11 10:43:00;;;;;;;7.55;2.10;;;21.70;59.00;;;;;;5115948;28;20031;-45
2022/06/11 10:45:27;;;;;;;10.15;2.00;;;21.90;59.50;;;;;;5097623;28;20036;-45
2022/06/11 10:47:55;;;;;;;7.03;2.15;;;22.00;59.00;;;;;;5116007;28;20023;-44
2022/06/11 10:50:29;;;;;;;9.85;2.50;;;22.20;58.90;;;;;;5115904;28;20061;-45
2022/06/11 10:53:10;;;;;;;9.00;2.22;;;22.30;58.80;;;;;;5115483;28;20023;-42
2022/06/11 10:55:51;;;;;;;8.70;2.42;;;22.40;58.40;;;;;;5115956;28;20031;-45
2022/06/11 10:58:55;;;;;;;7.45;2.10;;;22.50;58.00;;;;;;5115536;28;20032;-45
2022/06/11 11:01:28;;;;;;;10.15;2.40;;;22.70;57.90;;;;;;5115935;28;20031;-45
2022/06/11 11:04:05;;;;;;;;;;;22.80;58.30;;;;;;5116289;28;20024;-44
2022/06/11 11:06:35;;;;;;;6.32;2.08;;;22.90;57.60;;;;;;5115923;28;19904;-44
2022/06/11 11:09:22;;;;;;;8.13;2.20;;;22.90;57.50;;;;;;5115961;28;20027;-45
2022/06/11 11:11:51;;;;;;;7.45;2.42;;;22.90;57.20;;;;;;5116291;28;20028;-45
2022/06/11 11:14:39;;;;;;;8.40;2.30;;;22.90;56.90;;;;;;5115920;28;20497;-45
2022/06/11 11:17:18;;;;;;;7.25;2.47;;;23.00;56.80;;;;;;5115702;28;20020;-45
2022/06/11 11:20:29;;;;;;;7.22;2.00;;;23.00;56.70;;;;;;5115844;28;20023;-45
2022/06/11 11:22:35;;;;;;;10.82;2.22;;;22.90;56.80;;;;;;5114966;28;20102;-45
2022/06/11 11:25:03;;;;;;;9.77;2.33;;;22.90;57.00;;;;;;5115410;28;20020;-45
2022/06/11 11:27:34;;;;;;;5.80;2.05;;;22.90;57.10;;;;;;5114659;28;20036;-45
2022/06/11 11:30:10;;;;;;;9.35;2.65;;;22.90;56.70;;;;;;5115295;28;20491;-46
2022/06/11 11:32:36;;;;;;;6.38;2.03;;;22.90;56.50;;;;;;5115483;28;20015;-45
2022/06/11 11:35:20;;;;;;;7.25;2.03;;;23.00;56.70;;;;;;5115354;28;20039;-45
2022/06/11 11:37:59;;;;;;;8.57;2.30;;;23.10;56.40;;;;;;5115249;28;20024;-45
2022/06/11 11:40:34;;;;;;;9.07;2.35;;;23.10;56.30;;;;;;5115059;27;20023;-48
2022/06/11 11:43:04;;;;;;;6.90;2.15;;;23.10;56.30;;;;;;5115212;28;20073;-45
2022/06/11 11:45:46;;;;;;;5.00;1.90;;;23.20;57.10;;;;;;5114922;28;20101;-45
2022/06/11 11:48:19;;;;;;;9.32;2.40;;;23.30;56.40;;;;;;5115032;28;20031;-44
2022/06/11 11:50:50;;;;;;;6.78;1.77;;;23.30;56.20;;;;;;5114989;28;20158;-45
2022/06/11 11:53:28;;;;;;;8.93;2.20;;;23.40;56.30;;;;;;5115578;28;20076;-45
2022/06/11 11:56:00;;;;;;;6.85;2.40;;;23.30;56.10;;;;;;5114970;28;20522;-45
2022/06/11 11:58:37;;;;;;;10.90;2.28;;;23.20;56.10;;;;;;5114842;27;20499;-44
2022/06/11 12:01:07;;;;;;;8.00;2.53;;;23.20;56.70;;;;;;5115001;28;20111;-45
2022/06/11 12:03:47;;;;;;;7.30;2.25;;;23.20;56.20;;;;;;5114541;28;20016;-45
2022/06/11 12:06:17;;;;;;;8.98;2.50;;;23.30;56.10;;;;;;5114559;28;20020;-45
2022/06/11 12:08:51;;;;;;;7.90;2.17;;;23.30;55.90;;;;;;5114623;28;20157;-45
2022/06/11 12:11:28;;;;;;;5.25;1.80;;;23.30;55.60;;;;;;5114762;28;20114;-45
2022/06/11 12:14:15;;;;;;;4.30;1.63;;;23.40;55.70;;;;;;5114479;28;20482;-45
2022/06/11 12:16:50;;;;;;;7.78;1.90;;;23.40;55.70;;;;;;5113952;28;20028;-45
2022/06/11 12:19:30;;;;;;;6.35;2.00;;;23.50;55.60;;;;;;5114126;28;20027;-45
2022/06/11 12:22:26;;;;;;;6.53;1.70;;;23.50;55.40;;;;;;5114284;28;20024;-46
2022/06/11 12:24:54;;;;;;;6.53;1.80;;;23.60;55.50;;;;;;5114510;28;20030;-46
2022/06/11 12:27:36;;;;;;;5.90;1.70;;;23.80;55.40;;;;;;5114246;28;20042;-45
2022/06/11 12:30:10;;;;;;;7.35;1.98;;;23.90;55.30;;;;;;5114353;28;20039;-46
2022/06/11 12:32:35;;;;;;;7.43;2.20;;;24.00;55.30;;;;;;5112879;28;20547;-45
2022/06/11 12:35:09;;;;;;;8.45;2.10;;;24.20;55.10;;;;;;5114745;28;20023;-46
2022/06/11 12:37:39;;;;;;;10.05;2.42;;;24.30;54.80;;;;;;5114140;28;20110;-45
2022/06/11 12:40:48;;;;;;;10.00;2.50;;;24.40;54.20;;;;;;5114511;28;20470;-44
2022/06/11 12:43:32;;;;;;;6.10;1.90;;;24.40;54.20;;;;;;5114254;28;20106;-45
2022/06/11 12:46:12;;;;;;;5.63;1.70;;;24.50;54.40;;;;;;5114630;28;20088;-45
2022/06/11 12:48:54;;;;;;;5.15;1.67;;;24.70;54.30;;;;;;5114170;28;20181;-46
2022/06/11 12:51:57;;;;;;;6.40;1.90;;;24.90;54.20;;;;;;5114119;28;20096;-45
2022/06/11 12:54:39;;;;;;;6.85;2.00;;;25.20;53.60;;;;;;5113959;28;20024;-46
2022/06/11 12:57:30;;;;;;;7.65;2.28;;;25.10;52.90;;;;;;5112387;28;20032;-45
2022/06/11 13:00:19;;;;;;;6.72;2.10;;;24.90;52.70;;;;;;5113551;28;20048;-45
2022/06/11 13:03:39;;;;;;;6.18;2.08;;;24.80;53.40;;;;;;5112627;28;20031;-45
2022/06/11 13:06:26;;;;;;;8.15;2.03;;;24.80;53.30;;;;;;5070754;28;20111;-46
2022/06/11 13:09:10;;;;;;;9.98;2.45;;;25.00;53.50;;;;;;5113697;28;20518;-45
2022/06/11 13:11:35;;;;;;;7.60;2.38;;;25.10;52.70;;;;;;5112213;28;20173;-45
2022/06/11 13:14:50;;;;;;;8.02;2.53;;;25.00;52.70;;;;;;5113607;28;20031;-46